Time;durP1;ratioP1;P1;durP2;ratioP2;P2;SDS_P1;SDS_P2;PMS_P1;PMS_P2;Temp;Humidity;BMP_temperature;BMP_pressure;BME280_temperature;BME280_humidity;BME280_pressure;Samples;Min_cycle;Max_cycle;Signal;HPM_P1;HPM_P2
2021/09/07 00:00:46;;;;;;;;;11.25;10.50;;;;;25.14;40.63;101760.47;4924173;28;45442;-71
2021/09/07 00:03:11;;;;;;;;;9.50;8.50;;;;;25.07;40.77;101741.94;4924639;28;45442;-71
2021/09/07 00:05:37;;;;;;;;;10.50;10.50;;;;;25.19;40.43;101765.56;4922950;28;48254;-71
2021/09/07 00:08:03;;;;;;;;;10.75;10.75;;;;;25.21;40.08;101773.63;4924522;28;45437;-71
2021/09/07 00:10:29;;;;;;;;;9.00;7.75;;;;;25.14;39.95;101765.94;4907411;28;45394;-71
2021/09/07 00:12:54;;;;;;;;;8.50;8.50;;;;;24.98;40.25;101748.13;4923966;28;45149;-70
2021/09/07 00:15:20;;;;;;;;;8.50;7.50;;;;;24.95;40.20;101741.88;4924115;28;45507;-71
2021/09/07 00:17:46;;;;;;;;;9.00;9.00;;;;;24.93;39.87;101749.34;4906983;28;45687;-71
2021/09/07 00:20:12;;;;;;;;;8.50;8.50;;;;;24.93;40.49;101749.34;4924484;28;45305;-71
2021/09/07 00:22:38;;;;;;;;;10.25;8.25;;;;;24.84;40.60;101735.53;4923878;28;45482;-71
2021/09/07 00:25:05;;;;;;;;;9.00;9.00;;;;;24.80;40.56;101734.91;4922902;28;46511;-71
2021/09/07 00:27:31;;;;;;;;;9.75;8.00;;;;;24.86;40.72;101752.66;4923996;28;45455;-71
2021/09/07 00:29:57;;;;;;;;;12.50;11.00;;;;;24.82;40.49;101751.16;4907296;28;45497;-71
2021/09/07 00:32:23;;;;;;;;;10.00;10.00;;;;;24.83;41.18;101752.91;4924005;28;45537;-71
2021/09/07 00:34:48;;;;;;;;;9.50;9.25;;;;;24.94;40.88;101772.06;4923993;28;45472;-71
2021/09/07 00:37:14;;;;;;;;;9.50;9.50;;;;;24.85;41.05;101757.25;4923466;28;45237;-71
2021/09/07 00:39:39;;;;;;;;;9.00;8.25;;;;;24.94;41.47;101767.47;4919515;28;45398;-71
2021/09/07 00:42:05;;;;;;;;;8.25;8.00;;;;;24.69;41.50;101735.75;4923080;28;45562;-71
2021/09/07 00:44:30;;;;;;;;;11.00;9.00;;;;;24.90;42.11;101763.22;4923542;28;46274;-71
2021/09/07 00:46:59;;;;;;;;;7.75;6.75;;;;;24.71;41.37;101738.34;4923796;28;45221;-71
2021/09/07 00:49:26;;;;;;;;;9.50;9.50;;;;;24.64;41.85;101726.13;4924108;28;45431;-71
2021/09/07 00:51:53;;;;;;;;;9.00;9.00;;;;;24.90;41.81;101767.84;4923663;28;45474;-71
2021/09/07 00:54:20;;;;;;;;;10.25;9.00;;;;;24.49;41.94;101698.13;4923565;28;45442;-71
2021/09/07 00:56:46;;;;;;;;;9.00;9.00;;;;;24.67;41.82;101737.69;4924098;28;45475;-71
2021/09/07 00:59:13;;;;;;;;;9.50;8.25;;;;;24.77;42.04;101749.66;4923112;28;45455;-71
2021/09/07 01:01:39;;;;;;;;;10.00;9.50;;;;;24.81;42.14;101757.59;4923690;28;45481;-71
2021/09/07 01:04:04;;;;;;;;;13.50;11.75;;;;;24.77;42.43;101751.50;4923426;28;46371;-71
2021/09/07 01:06:30;;;;;;;;;9.75;9.25;;;;;24.65;42.48;101723.28;4922337;28;45778;-71
2021/09/07 01:08:57;;;;;;;;;9.75;9.75;;;;;24.60;42.61;101714.59;4923591;28;45335;-70
2021/09/07 01:11:23;;;;;;;;;12.50;10.50;;;;;24.60;42.35;101714.59;4923459;28;45545;-70
2021/09/07 01:13:48;;;;;;;;;10.25;10.25;;;;;24.59;42.06;101715.56;4922782;28;45576;-71
2021/09/07 01:16:16;;;;;;;;;10.75;10.75;;;;;24.55;42.90;101701.28;4923289;28;45390;-71
2021/09/07 01:18:41;;;;;;;;;8.50;8.25;;;;;24.48;42.99;101693.66;4923659;28;45464;-71
2021/09/07 01:21:12;;;;;;;;;9.25;9.25;;;;;24.67;42.70;101725.91;4923349;28;45584;-71
2021/09/07 01:23:41;;;;;;;;;11.00;9.00;;;;;24.69;43.04;101726.66;4923507;28;46199;-71
2021/09/07 01:26:07;;;;;;;;;11.00;10.25;;;;;24.49;42.89;101704.47;4906302;28;45863;-71
2021/09/07 01:28:34;;;;;;;;;12.25;12.25;;;;;24.45;43.00;101702.09;4922751;28;45325;-71
2021/09/07 01:31:00;;;;;;;;;10.00;9.00;;;;;24.54;43.02;101717.75;4903179;28;45469;-71
2021/09/07 01:33:25;;;;;;;;;12.50;12.25;;;;;24.57;42.91;101726.63;4918098;28;45408;-71
2021/09/07 01:35:55;;;;;;;;;11.00;11.00;;;;;24.49;42.17;101718.13;4922866;28;45373;-71
2021/09/07 01:38:20;;;;;;;;;10.75;10.00;;;;;24.39;42.89;101704.28;4905701;28;45472;-71
2021/09/07 01:40:45;;;;;;;;;10.25;9.25;;;;;24.27;42.26;101682.50;4921791;28;45547;-70
2021/09/07 01:43:15;;;;;;;;;7.25;7.25;;;;;24.30;42.79;101688.59;4905361;28;48221;-71
2021/09/07 01:45:40;;;;;;;;;10.00;10.00;;;;;24.16;42.57;101683.34;4902503;29;45373;-71
2021/09/07 01:48:05;;;;;;;;;13.00;10.25;;;;;24.29;42.53;101716.00;4919184;28;45263;-71
2021/09/07 01:50:31;;;;;;;;;9.50;9.50;;;;;23.99;42.50;101677.28;4922359;28;45586;-71
2021/09/07 01:52:56;;;;;;;;;10.00;10.00;;;;;23.97;42.99;101678.38;4922697;28;46346;-70
2021/09/07 01:55:22;;;;;;;;;10.00;10.00;;;;;24.11;42.97;101691.88;4923063;28;45324;-71
2021/09/07 01:57:47;;;;;;;;;10.50;10.50;;;;;24.01;43.02;101688.09;4922521;28;45875;-70
2021/09/07 02:00:13;;;;;;;;;8.25;8.25;;;;;23.96;43.14;101684.84;4922566;28;45420;-70
2021/09/07 02:02:39;;;;;;;;;8.50;8.50;;;;;24.16;43.87;101718.81;4922730;28;45574;-71
2021/09/07 02:05:05;;;;;;;;;12.75;10.00;;;;;24.16;43.35;101722.38;4922910;28;45287;-71
2021/09/07 02:07:30;;;;;;;;;10.00;9.00;;;;;24.11;43.86;101710.94;4922854;28;45324;-70
2021/09/07 02:09:56;;;;;;;;;9.25;9.25;;;;;24.11;43.50;101713.69;4922664;28;45268;-71
2021/09/07 02:12:22;;;;;;;;;11.25;11.25;;;;;23.92;43.91;101684.16;4918486;28;47682;-71
2021/09/07 02:14:49;;;;;;;;;9.00;9.00;;;;;23.93;43.95;101685.06;4922246;28;45391;-71
2021/09/07 02:17:15;;;;;;;;;9.00;9.00;;;;;24.03;43.77;101702.47;4919233;28;45468;-71
2021/09/07 02:19:40;;;;;;;;;10.25;9.00;;;;;23.92;43.94;101681.44;4905491;28;45497;-71
2021/09/07 02:22:05;;;;;;;;;11.00;10.25;;;;;23.93;43.93;101685.06;4922522;28;46252;-71
2021/09/07 02:24:31;;;;;;;;;11.50;9.25;;;;;24.07;44.09;101706.69;4922167;28;45390;-70
2021/09/07 02:26:56;;;;;;;;;10.25;10.25;;;;;23.95;43.98;101689.38;4922628;28;45243;-71
2021/09/07 02:29:21;;;;;;;;;11.25;11.25;;;;;23.85;43.74;101680.16;4920792;28;45436;-71
2021/09/07 02:31:47;;;;;;;;;10.00;10.00;;;;;23.99;43.97;101701.84;4920834;28;47527;-71
2021/09/07 02:34:12;;;;;;;;;8.75;8.00;;;;;23.73;43.88;101667.41;4905194;28;45393;-70
2021/09/07 02:36:38;;;;;;;;;13.75;13.25;;;;;23.90;43.84;101702.50;4921936;28;45574;-70
2021/09/07 02:39:04;;;;;;;;;9.00;9.00;;;;;23.61;44.53;101650.09;4922313;28;45423;-70
2021/09/07 02:41:29;;;;;;;;;10.50;10.00;;;;;23.81;44.53;101689.53;4904600;28;47217;-70
2021/09/07 02:43:54;;;;;;;;;9.75;9.50;;;;;23.86;44.58;101687.38;4922092;28;45276;-70
2021/09/07 02:46:20;;;;;;;;;12.25;11.25;;;;;23.67;44.83;101657.81;4922228;28;45278;-70
2021/09/07 02:48:45;;;;;;;;;13.25;12.00;;;;;23.73;44.66;101665.53;4922350;28;45547;-70
2021/09/07 02:51:11;;;;;;;;;8.75;8.75;;;;;23.67;44.47;101645.06;4921868;28;45528;-70
2021/09/07 02:53:36;;;;;;;;;9.25;9.25;;;;;23.62;44.55;101646.38;4922236;28;45221;-71
2021/09/07 02:56:01;;;;;;;;;12.00;10.25;;;;;23.65;44.60;101652.47;4904710;28;45320;-70
2021/09/07 02:58:27;;;;;;;;;11.50;11.00;;;;;23.74;45.10;101660.94;4921869;28;45157;-70
2021/09/07 03:00:52;;;;;;;;;12.00;12.00;;;;;23.59;44.83;101643.88;4920774;28;45394;-70
2021/09/07 03:03:18;;;;;;;;;10.75;9.00;;;;;23.61;45.36;101650.97;4923071;28;45218;-71
2021/09/07 03:05:43;;;;;;;;;11.50;11.50;;;;;23.67;45.67;101655.97;4925531;28;45215;-70
2021/09/07 03:08:08;;;;;;;;;12.75;10.25;;;;;23.76;45.67;101668.03;4925451;28;45229;-70
2021/09/07 03:10:34;;;;;;;;;14.25;12.25;;;;;23.53;45.57;101623.41;4924553;28;45533;-70
2021/09/07 03:12:59;;;;;;;;;13.00;11.50;;;;;23.60;45.19;101646.47;4924079;28;45344;-70
2021/09/07 03:15:25;;;;;;;;;14.50;12.00;;;;;23.60;45.48;101643.75;4923862;28;45370;-70
2021/09/07 03:17:50;;;;;;;;;9.50;9.50;;;;;23.64;45.52;101658.91;4925079;28;45478;-70
2021/09/07 03:20:16;;;;;;;;;11.25;10.00;;;;;23.72;45.62;101674.69;4925193;28;46215;-70
2021/09/07 03:22:42;;;;;;;;;13.00;12.25;;;;;23.49;45.91;101632.81;4924946;28;45426;-70
2021/09/07 03:25:07;;;;;;;;;12.50;12.50;;;;;23.49;46.10;101630.94;4920697;28;45419;-70
2021/09/07 03:27:33;;;;;;;;;10.25;10.25;;;;;23.61;45.73;101650.97;4925177;28;45456;-70
2021/09/07 03:29:58;;;;;;;;;14.00;12.25;;;;;23.38;45.37;101621.81;4908546;28;46907;-70
2021/09/07 03:32:24;;;;;;;;;15.50;14.00;;;;;23.52;46.10;101640.72;4925190;28;45308;-70
2021/09/07 03:34:49;;;;;;;;;11.25;10.50;;;;;23.44;46.34;101633.13;4924984;28;45326;-70
2021/09/07 03:37:15;;;;;;;;;14.50;11.25;;;;;23.33;46.06;101613.09;4908789;28;45795;-70
2021/09/07 03:39:41;;;;;;;;;14.00;12.00;;;;;23.41;46.28;101625.16;4907585;28;46429;-70
2021/09/07 03:42:06;;;;;;;;;14.00;13.00;;;;;23.49;46.30;101638.25;4924436;28;45162;-70
2021/09/07 03:44:32;;;;;;;;;13.50;12.75;;;;;23.57;45.68;101662.19;4923333;28;45193;-70
2021/09/07 03:46:57;;;;;;;;;13.00;12.00;;;;;23.47;45.94;101637.47;4923626;28;45553;-70
2021/09/07 03:49:22;;;;;;;;;14.00;13.25;;;;;23.46;45.98;101646.63;4923438;28;47188;-70
2021/09/07 03:51:48;;;;;;;;;12.50;12.50;;;;;23.30;46.13;101627.78;4924596;28;45213;-70
2021/09/07 03:54:13;;;;;;;;;16.00;15.00;;;;;23.26;46.30;101618.97;4907214;28;45341;-70
2021/09/07 03:56:39;;;;;;;;;12.25;11.00;;;;;23.22;46.29;101627.47;4924884;28;45329;-70
2021/09/07 03:59:04;;;;;;;;;14.25;13.00;;;;;23.23;46.51;101634.69;4924090;28;46101;-70
2021/09/07 04:01:30;;;;;;;;;12.25;10.25;;;;;23.22;46.53;101628.38;4924711;28;45457;-70
2021/09/07 04:03:55;;;;;;;;;12.25;12.00;;;;;23.14;46.41;101622.59;4907639;28;45495;-70
2021/09/07 04:06:21;;;;;;;;;10.25;9.50;;;;;23.16;46.67;101619.75;4924566;28;45307;-70
2021/09/07 04:08:46;;;;;;;;;12.25;11.50;;;;;23.05;46.54;101607.72;4923026;28;47523;-70
2021/09/07 04:11:11;;;;;;;;;13.00;13.00;;;;;23.05;46.96;101615.91;4924300;28;45405;-70
2021/09/07 04:13:37;;;;;;;;;11.50;10.75;;;;;23.27;46.71;101652.53;4923332;28;45451;-70
2021/09/07 04:16:03;;;;;;;;;12.50;11.75;;;;;23.20;46.20;101646.66;4906993;28;45514;-70
2021/09/07 04:18:28;;;;;;;;;12.50;12.25;;;;;23.03;46.61;101626.03;4919792;28;47567;-70
2021/09/07 04:20:53;;;;;;;;;13.50;11.00;;;;;23.01;47.13;101633.44;4922338;28;45292;-70
2021/09/07 04:23:19;;;;;;;;;10.25;10.25;;;;;23.06;46.22;101638.56;4924256;28;45276;-70
2021/09/07 04:25:44;;;;;;;;;12.50;11.75;;;;;23.11;46.40;101658.22;4922265;28;45449;-70
2021/09/07 04:28:10;;;;;;;;;13.25;13.00;;;;;23.00;46.86;101639.00;4923588;28;45331;-70
2021/09/07 04:30:35;;;;;;;;;11.75;9.50;;;;;22.93;47.10;101639.44;4923728;28;45427;-70
2021/09/07 04:33:00;;;;;;;;;15.75;15.00;;;;;22.94;46.94;101643.91;4924278;28;45465;-70
2021/09/07 04:35:26;;;;;;;;;12.00;12.00;;;;;22.93;46.65;101649.44;4923850;28;47135;-70
2021/09/07 04:37:51;;;;;;;;;12.00;12.00;;;;;22.98;46.76;101660.03;4923494;28;45323;-70
2021/09/07 04:40:17;;;;;;;;;12.50;11.00;;;;;22.86;47.20;101643.56;4923827;28;45293;-70
2021/09/07 04:42:42;;;;;;;;;12.50;12.50;;;;;23.03;47.04;101676.91;4923677;28;45235;-70
2021/09/07 04:45:08;;;;;;;;;15.00;13.00;;;;;22.90;47.38;101661.44;4923477;28;45478;-70
2021/09/07 04:47:34;;;;;;;;;13.50;12.00;;;;;23.01;47.46;101685.19;4922481;28;48305;-70
2021/09/07 04:49:59;;;;;;;;;13.25;11.00;;;;;22.96;47.32;101676.47;4923870;28;45251;-70
2021/09/07 04:52:25;;;;;;;;;12.50;12.00;;;;;22.99;47.26;101689.88;4920998;28;45447;-70
2021/09/07 04:54:50;;;;;;;;;11.75;11.75;;;;;22.87;47.27;101668.94;4907781;28;45560;-71
2021/09/07 04:57:15;;;;;;;;;15.00;12.75;;;;;22.96;47.61;101670.16;4911805;28;48214;-70
2021/09/07 04:59:41;;;;;;;;;11.50;11.50;;;;;22.89;47.57;101661.56;4922016;28;45447;-70
2021/09/07 05:02:06;;;;;;;;;13.00;13.00;;;;;22.90;47.27;101666.91;4923609;28;45426;-70
2021/09/07 05:04:32;;;;;;;;;14.00;14.00;;;;;22.78;47.53;101648.69;4923456;28;45394;-70
2021/09/07 05:06:57;;;;;;;;;20.00;17.00;;;;;22.91;47.45;101674.06;4923532;28;46264;-70
2021/09/07 05:09:23;;;;;;;;;13.75;12.00;;;;;22.96;47.05;101684.63;4923116;28;45431;-70
2021/09/07 05:11:48;;;;;;;;;15.50;14.50;;;;;22.88;47.55;101679.72;4936894;28;45259;-70
2021/09/07 05:14:14;;;;;;;;;17.50;14.75;;;;;22.92;47.34;101696.69;4922562;28;46186;-70
2021/09/07 05:16:39;;;;;;;;;15.75;15.00;;;;;22.68;47.64;101663.91;4923275;28;46458;-70
2021/09/07 05:19:05;;;;;;;;;11.25;10.75;;;;;22.73;47.92;101675.34;4922887;28;45289;-70
2021/09/07 05:21:30;;;;;;;;;12.75;12.75;;;;;22.84;47.76;101694.53;4923373;28;45346;-70
2021/09/07 05:23:56;;;;;;;;;16.25;13.25;;;;;22.81;47.51;101689.28;4923313;28;45403;-70
2021/09/07 05:26:21;;;;;;;;;12.25;12.00;;;;;22.70;48.18;101668.28;4930851;28;45992;-70
2021/09/07 05:28:46;;;;;;;;;16.25;15.75;;;;;22.77;47.59;101690.50;4922660;28;45201;-70
2021/09/07 05:31:12;;;;;;;;;13.25;12.50;;;;;22.79;47.61;101691.25;4922333;28;45410;-70
2021/09/07 05:33:37;;;;;;;;;15.50;13.00;;;;;22.73;47.44;101687.09;4923273;28;45411;-70
2021/09/07 05:36:03;;;;;;;;;14.75;14.00;;;;;22.57;47.64;101659.22;4922184;28;45352;-70
2021/09/07 05:38:28;;;;;;;;;14.75;13.00;;;;;22.76;47.69;101700.50;4922999;28;45323;-70
2021/09/07 05:40:54;;;;;;;;;14.25;14.00;;;;;22.64;47.72;101678.72;4923014;28;45307;-70
2021/09/07 05:43:19;;;;;;;;;18.75;17.75;;;;;22.55;47.90;101662.03;4922435;28;45374;-70
2021/09/07 05:45:45;;;;;;;;;12.25;11.50;;;;;22.57;48.01;101670.97;4922571;28;46403;-70
2021/09/07 05:48:10;;;;;;;;;15.50;14.25;;;;;22.52;47.87;101672.22;4936756;28;45454;-71
2021/09/07 05:50:36;;;;;;;;;9.00;9.00;;;;;22.53;47.87;101685.72;4922671;28;45419;-70
2021/09/07 05:53:01;;;;;;;;;13.00;12.00;;;;;22.57;47.75;101692.72;4922558;28;45568;-70
2021/09/07 05:55:27;;;;;;;;;15.00;15.00;;;;;22.47;47.95;101671.69;4905412;28;47548;-70
2021/09/07 05:57:54;;;;;;;;;13.75;13.00;;;;;22.42;47.68;101674.72;4922494;28;45404;-70
2021/09/07 06:00:19;;;;;;;;;17.50;15.25;;;;;22.44;47.79;101678.22;4922356;28;45517;-70
2021/09/07 06:02:45;;;;;;;;;12.50;12.50;;;;;22.40;48.29;101671.22;4904648;28;45400;-71
2021/09/07 06:05:12;;;;;;;;;16.00;15.00;;;;;22.56;47.76;101699.13;4922289;28;46403;-71
2021/09/07 06:18:12;;;;;;;;;;;;;;;;;;;;;
2021/09/07 06:24:54;;;;;;;;;;;;;;;;;;;;;
2021/09/07 06:35:24;;;;;;;;;;;;;;;;;;;;;
2021/09/07 06:37:49;;;;;;;;;;;;;;;;;;;;;
2021/09/07 06:40:27;;;;;;;;;;;;;;;;;;;;;
2021/09/07 06:43:21;;;;;;;;;17.00;16.25;;;;;22.14;49.45;101652.06;4825030;29;74080;-74
2021/09/07 06:50:01;;;;;;;;;;;;;;;;;;;;;
2021/09/07 06:56:46;;;;;;;;;;;;;;;;;;;;;
2021/09/07 07:30:49;;;;;;;;;;;;;;;;;;;;;
2021/09/07 07:33:27;;;;;;;;;;;;;;;;;;;;;
2021/09/07 07:39:29;;;;;;;;;;;;;;;;;;;;;
2021/09/07 07:53:24;;;;;;;;;;;;;;;;;;;;;
2021/09/07 08:00:45;;;;;;;;;;;;;;;;;;;;;
2021/09/07 08:03:55;;;;;;;;;14.00;12.50;;;;;23.18;47.50;101743.06;4736332;29;73943;-75
2021/09/07 09:38:52;;;;;;;;;13.50;12.00;;;;;25.01;44.07;101739.66;5058148;23;46495;-75
2021/09/07 11:33:57;;;;;;;;;;;;;;;;;;;;;
2021/09/07 13:54:03;;;;;;;;;8.00;8.00;;;;;28.29;32.44;101355.09;4863804;29;45443;-78
2021/09/07 14:48:11;;;;;;;;;8.25;8.25;;;;;28.68;31.86;101310.97;4738699;29;45633;-76
2021/09/07 14:58:00;;;;;;;;;9.25;9.25;;;;;28.95;31.23;101339.44;4699940;30;46460;-80
2021/09/07 16:05:49;;;;;;;;;;;;;;;;;;;;;
2021/09/07 16:33:09;;;;;;;;;;;;;;;;;;;;;
2021/09/07 16:36:22;;;;;;;;;;;;;;;;;;;;;
2021/09/07 16:45:58;;;;;;;;;;;;;;;;;;;;;
2021/09/07 16:52:23;;;;;;;;;9.50;9.00;;;;;29.10;31.64;101247.19;4819811;29;45281;-75
2021/09/07 16:59:11;;;;;;;;;;;;;;;;;;;;;
2021/09/07 17:02:08;;;;;;;;;;;;;;;;;;;;;
2021/09/07 17:05:29;;;;;;;;;11.00;10.00;;;;;28.78;32.94;101201.03;4884775;29;67509;-75
2021/09/07 17:11:08;;;;;;;;;7.50;7.50;;;;;28.77;32.47;101191.94;4823592;29;45741;-79
2021/09/07 17:13:34;;;;;;;;;10.00;9.00;;;;;28.90;32.83;101218.13;4832703;29;45507;-79
2021/09/07 17:16:01;;;;;;;;;8.50;8.50;;;;;28.79;32.73;101200.88;4885225;29;45185;-78
2021/09/07 17:18:27;;;;;;;;;9.75;8.50;;;;;28.71;32.56;101180.72;4884748;29;45537;-78
2021/09/07 17:21:02;;;;;;;;;10.00;10.00;;;;;28.62;31.98;101171.56;4883138;29;45547;-77
2021/09/07 17:23:27;;;;;;;;;7.75;7.25;;;;;28.59;31.83;101163.63;4884230;29;45452;-78
2021/09/07 17:26:13;;;;;;;;;10.75;10.25;;;;;28.95;32.51;101221.28;4883758;29;45503;-77
2021/09/07 17:29:23;;;;;;;;;9.00;9.00;;;;;28.71;31.85;101184.31;4884621;29;45454;-77
2021/09/07 17:38:39;;;;;;;;;10.00;10.00;;;;;28.49;32.35;101151.81;4885208;29;45248;-78
2021/09/07 17:43:53;;;;;;;;;11.25;11.25;;;;;28.54;32.17;101161.31;4877738;29;45822;-77
2021/09/07 17:46:22;;;;;;;;;9.25;9.25;;;;;28.70;32.63;101196.34;4880545;29;45759;-76
2021/09/07 17:51:55;;;;;;;;;;;;;;;;;;;;;
2021/09/07 17:55:14;;;;;;;;;;;;;;;;;;;;;
2021/09/07 17:57:45;;;;;;;;;11.00;9.75;;;;;28.67;32.81;101185.66;4841848;29;73032;-79
2021/09/07 18:00:56;;;;;;;;;;;;;;;;;;;;;
2021/09/07 18:10:38;;;;;;;;;13.00;11.75;;;;;28.68;33.07;101203.84;4769832;29;45716;-78
2021/09/07 18:14:00;;;;;;;;;;;;;;;;;;;;;
2021/09/07 18:27:18;;;;;;;;;;;;;;;;;;;;;
2021/09/07 18:31:01;;;;;;;;;;;;;;;;;;;;;
2021/09/07 18:57:29;;;;;;;;;9.25;9.25;;;;;27.94;34.69;101156.38;4768812;29;45581;-77
2021/09/07 19:03:31;;;;;;;;;11.25;11.25;;;;;27.94;34.64;101175.59;4750634;29;45698;-71
2021/09/07 19:05:56;;;;;;;;;13.50;12.50;;;;;28.09;35.02;101190.50;4828051;29;45485;-71
2021/09/07 19:08:27;;;;;;;;;12.25;11.25;;;;;27.91;34.90;101170.38;4828279;29;45708;-70
2021/09/07 19:10:55;;;;;;;;;11.75;10.75;;;;;27.73;34.93;101142.88;4823892;29;45621;-71
2021/09/07 19:13:23;;;;;;;;;15.75;13.50;;;;;27.98;34.77;101189.84;4817818;29;45987;-71
2021/09/07 19:15:49;;;;;;;;;11.50;10.75;;;;;27.93;35.22;101187.56;4827694;29;45507;-71
2021/09/07 19:18:14;;;;;;;;;14.75;13.25;;;;;27.89;34.89;101183.38;4827852;29;46385;-70
2021/09/07 19:20:40;;;;;;;;;12.25;12.25;;;;;27.89;35.01;101186.13;4829948;29;45540;-74
2021/09/07 19:23:06;;;;;;;;;13.50;12.50;;;;;27.78;35.15;101167.97;4821154;29;45534;-71
2021/09/07 19:25:31;;;;;;;;;12.75;11.50;;;;;27.88;35.50;101192.63;4825599;29;45553;-71
2021/09/07 19:27:57;;;;;;;;;15.00;15.00;;;;;27.93;35.78;101211.41;4824053;29;45886;-73
2021/09/07 19:30:22;;;;;;;;;15.00;14.00;;;;;27.69;35.76;101177.97;4823873;29;46487;-71
2021/09/07 19:32:48;;;;;;;;;16.75;16.75;;;;;27.86;35.56;101209.22;4832284;29;45537;-73
2021/09/07 19:35:13;;;;;;;;;13.50;13.50;;;;;27.76;35.53;101196.56;4826141;29;45454;-72
2021/09/07 19:37:40;;;;;;;;;16.75;16.00;;;;;27.72;35.93;101196.03;4807154;29;46045;-71
2021/09/07 19:40:07;;;;;;;;;9.50;9.50;;;;;27.70;36.14;101196.16;4824025;29;45719;-70
2021/09/07 19:42:33;;;;;;;;;15.00;13.50;;;;;27.58;35.66;101182.78;4845464;29;46079;-71
2021/09/07 19:44:59;;;;;;;;;16.00;15.00;;;;;27.69;36.02;101201.81;4844093;29;45931;-70
2021/09/07 19:47:25;;;;;;;;;17.25;16.50;;;;;27.43;36.16;101157.72;4844034;29;45789;-72
2021/09/07 19:49:50;;;;;;;;;15.50;14.75;;;;;27.50;35.81;101176.19;4848243;29;45560;-71
2021/09/07 19:52:15;;;;;;;;;13.75;13.75;;;;;27.44;36.49;101164.97;4853108;29;45896;-72
2021/09/07 19:54:41;;;;;;;;;14.25;13.50;;;;;27.52;36.53;101184.25;4845948;29;45802;-72
2021/09/07 19:57:06;;;;;;;;;18.00;15.25;;;;;27.42;36.44;101175.22;4845320;29;45572;-74
2021/09/07 19:59:32;;;;;;;;;15.25;14.50;;;;;27.30;36.23;101161.69;4844588;29;45496;-73
2021/09/07 20:01:57;;;;;;;;;13.00;13.00;;;;;27.44;36.58;101204.19;4846549;29;45505;-73
2021/09/07 20:04:24;;;;;;;;;15.50;14.25;;;;;27.37;36.77;101191.25;4845781;29;45699;-73
2021/09/07 20:06:50;;;;;;;;;14.25;13.00;;;;;27.20;37.18;101174.53;4845418;29;45702;-71
2021/09/07 20:09:17;;;;;;;;;14.25;12.50;;;;;27.29;36.32;101184.59;4843699;29;47986;-71
2021/09/07 20:11:43;;;;;;;;;15.25;13.50;;;;;27.40;36.91;101212.84;4852541;29;45986;-71
2021/09/07 20:14:08;;;;;;;;;16.00;16.00;;;;;27.19;36.61;101172.78;4839756;29;45437;-73
2021/09/07 20:16:34;;;;;;;;;15.25;13.75;;;;;27.16;36.66;101168.47;4845039;29;45503;-73
2021/09/07 20:18:59;;;;;;;;;13.00;12.25;;;;;26.93;36.40;101139.66;4851483;29;47604;-71
2021/09/07 20:21:25;;;;;;;;;12.75;12.00;;;;;26.97;36.88;101152.91;4847947;29;45543;-70
2021/09/07 20:23:50;;;;;;;;;14.25;13.50;;;;;27.05;37.28;101181.44;4845377;29;46178;-71
2021/09/07 20:26:15;;;;;;;;;15.00;13.75;;;;;26.95;36.68;101165.91;4843854;29;45563;-71
2021/09/07 20:28:41;;;;;;;;;10.50;10.50;;;;;26.93;36.60;101173.41;4844490;29;45532;-71
2021/09/07 20:31:06;;;;;;;;;13.75;13.50;;;;;27.08;36.44;101203.06;4840837;29;46635;-71
2021/09/07 20:33:31;;;;;;;;;13.25;13.25;;;;;26.74;36.87;101151.50;4828312;29;45555;-71
2021/09/07 20:35:57;;;;;;;;;15.75;14.25;;;;;26.97;36.73;101194.00;4844778;29;45565;-71
2021/09/07 20:38:23;;;;;;;;;12.75;12.75;;;;;26.98;36.90;101206.72;4854280;29;47268;-72
2021/09/07 20:40:49;;;;;;;;;12.00;10.50;;;;;26.95;36.91;101196.03;4850918;29;45454;-73
2021/09/07 20:43:14;;;;;;;;;15.00;15.00;;;;;26.71;36.96;101162.75;4850093;29;45866;-72
2021/09/07 20:45:41;;;;;;;;;12.50;12.50;;;;;26.81;36.69;101185.50;4844634;29;45830;-72
2021/09/07 20:48:07;;;;;;;;;12.75;12.75;;;;;26.74;36.93;101168.78;4844641;29;45408;-73
2021/09/07 20:50:33;;;;;;;;;15.00;14.00;;;;;26.74;36.89;101181.63;4855262;29;45508;-73
2021/09/07 20:52:58;;;;;;;;;16.75;15.50;;;;;26.72;37.03;101179.03;4836328;29;45560;-72
2021/09/07 20:55:24;;;;;;;;;13.75;13.75;;;;;26.70;36.69;101174.72;4844360;29;45573;-73
2021/09/07 20:57:49;;;;;;;;;14.75;14.00;;;;;26.87;36.80;101209.59;4852342;29;45441;-72
2021/09/07 21:00:16;;;;;;;;;14.50;13.00;;;;;26.60;36.27;101170.06;4850891;29;45445;-71
2021/09/07 21:02:41;;;;;;;;;14.00;13.00;;;;;26.56;36.06;101185.06;4854092;29;45638;-71
2021/09/07 21:05:08;;;;;;;;;15.25;14.00;;;;;26.71;36.28;101214.78;4848301;29;45677;-71
2021/09/07 21:07:33;;;;;;;;;12.75;12.75;;;;;26.61;36.04;101201.94;4848091;29;45511;-71
2021/09/07 21:09:58;;;;;;;;;14.50;13.50;;;;;26.57;36.36;101197.72;4848210;29;45409;-71
2021/09/07 21:12:24;;;;;;;;;12.00;10.00;;;;;26.52;36.46;101185.50;4845503;29;45335;-71
2021/09/07 21:14:49;;;;;;;;;15.50;12.75;;;;;26.31;35.99;101160.97;4843946;29;45163;-71
2021/09/07 21:17:15;;;;;;;;;14.50;14.25;;;;;26.44;36.00;101192.53;4837364;29;47232;-70
2021/09/07 21:19:40;;;;;;;;;12.50;10.75;;;;;26.25;35.97;101151.47;4859569;29;45227;-71
2021/09/07 21:22:05;;;;;;;;;13.75;12.25;;;;;26.52;35.74;101205.50;4849556;29;45233;-71
2021/09/07 21:24:31;;;;;;;;;12.25;11.75;;;;;26.51;35.91;101206.50;4848184;29;45262;-71
2021/09/07 21:26:56;;;;;;;;;13.00;13.00;;;;;26.47;36.04;101201.47;4846586;29;47540;-71
2021/09/07 21:29:22;;;;;;;;;13.75;12.50;;;;;26.55;35.66;101213.44;4846959;29;45250;-71
2021/09/07 21:31:47;;;;;;;;;12.00;10.25;;;;;26.47;36.06;101190.53;4847767;29;45282;-71
2021/09/07 21:34:12;;;;;;;;;10.50;10.50;;;;;26.40;36.44;101195.72;4858853;29;45360;-71
2021/09/07 21:36:38;;;;;;;;;12.75;12.75;;;;;26.38;36.16;101189.50;4843450;29;46949;-71
2021/09/07 21:39:04;;;;;;;;;16.25;16.25;;;;;26.19;35.93;101166.56;4847785;29;45354;-70
2021/09/07 21:41:33;;;;;;;;;14.25;13.25;;;;;26.35;35.85;101198.00;4843533;29;45357;-71
2021/09/07 21:43:58;;;;;;;;;14.75;14.75;;;;;26.22;35.70;101179.97;4855304;29;45276;-71
2021/09/07 21:46:23;;;;;;;;;10.75;10.75;;;;;26.40;35.53;101212.13;4847715;29;45398;-70
2021/09/07 21:48:49;;;;;;;;;12.25;11.00;;;;;26.11;35.64;101165.53;4846262;29;45344;-71
2021/09/07 21:51:14;;;;;;;;;13.75;13.75;;;;;26.37;35.96;101206.94;4847806;29;45289;-71
2021/09/07 21:53:39;;;;;;;;;13.50;12.50;;;;;26.23;35.80;101192.66;4839361;29;45520;-71
2021/09/07 21:56:05;;;;;;;;;11.50;11.50;;;;;26.39;35.55;101215.88;4835374;29;48010;-70
2021/09/07 21:58:30;;;;;;;;;12.00;12.00;;;;;26.35;35.59;101217.16;4847355;29;45377;-70
2021/09/07 22:00:55;;;;;;;;;12.75;12.75;;;;;26.25;35.52;101201.56;4847922;29;45322;-70
2021/09/07 22:03:21;;;;;;;;;12.00;10.00;;;;;26.21;35.49;101191.94;4849576;29;45457;-70
2021/09/07 22:05:46;;;;;;;;;12.75;12.75;;;;;26.20;35.97;101190.19;4852061;29;45315;-70
2021/09/07 22:08:11;;;;;;;;;11.75;11.75;;;;;26.12;36.14;101176.34;4844970;29;45355;-70
2021/09/07 22:10:37;;;;;;;;;13.25;11.50;;;;;26.22;36.19;101201.84;4847790;29;45351;-70
2021/09/07 22:13:03;;;;;;;;;13.25;12.25;;;;;26.22;35.47;101192.78;4841248;29;45462;-70
2021/09/07 22:15:28;;;;;;;;;11.75;11.00;;;;;26.20;35.56;101198.41;4847281;29;46068;-71
2021/09/07 22:17:53;;;;;;;;;12.25;12.25;;;;;26.18;35.54;101203.16;4847224;29;45356;-70
2021/09/07 22:20:19;;;;;;;;;11.25;11.25;;;;;26.11;35.66;101191.06;4847563;29;45706;-70
2021/09/07 22:22:46;;;;;;;;;12.75;11.75;;;;;26.16;35.55;101196.06;4847199;29;45457;-70
2021/09/07 22:25:12;;;;;;;;;13.00;12.50;;;;;26.11;35.84;101187.44;4850397;29;45470;-70
2021/09/07 22:27:37;;;;;;;;;11.25;11.25;;;;;26.12;35.55;101194.66;4830447;29;45481;-70
2021/09/07 22:30:03;;;;;;;;;13.50;13.50;;;;;26.10;35.55;101189.31;4846934;29;45823;-70
2021/09/07 22:32:29;;;;;;;;;15.00;13.00;;;;;26.06;35.97;101190.56;4847305;29;45476;-70
2021/09/07 22:34:54;;;;;;;;;15.00;12.25;;;;;26.04;35.42;101198.94;4856127;29;46260;-70
2021/09/07 22:37:19;;;;;;;;;11.75;11.75;;;;;26.00;35.51;101194.75;4842793;29;45371;-70